Time;durP1;ratioP1;P1;durP2;ratioP2;P2;SDS_P1;SDS_P2;PMS_P1;PMS_P2;Temp;Humidity;BMP_temperature;BMP_pressure;BME280_temperature;BME280_humidity;BME280_pressure;Samples;Min_cycle;Max_cycle;Signal;HPM_P1;HPM_P2
2021/11/19 00:00:28;;;;;;;7.43;4.07;;;6.60;71.30;;;;;;5060384;28;20033;-82
2021/11/19 00:02:54;;;;;;;8.30;5.17;;;6.70;71.30;;;;;;5051414;28;20062;-82
2021/11/19 00:05:19;;;;;;;8.17;5.37;;;6.70;71.20;;;;;;5049404;28;20080;-82
2021/11/19 00:07:45;;;;;;;9.40;5.10;;;6.60;71.30;;;;;;5075253;28;20028;-82
2021/11/19 00:10:12;;;;;;;5.77;4.70;;;6.60;71.30;;;;;;5060890;28;20028;-82
2021/11/19 00:12:38;;;;;;;6.53;4.57;;;6.60;71.20;;;;;;5075602;28;20024;-82
2021/11/19 00:15:06;;;;;;;6.97;5.13;;;6.60;71.50;;;;;;5062578;28;20047;-82
2021/11/19 00:17:32;;;;;;;14.07;6.73;;;6.60;71.50;;;;;;5076844;28;20039;-82
2021/11/19 00:19:58;;;;;;;21.43;8.03;;;6.60;71.50;;;;;;5068395;28;20029;-82
2021/11/19 00:22:24;;;;;;;13.97;9.87;;;6.60;71.50;;;;;;5062600;28;20082;-82
2021/11/19 00:24:49;;;;;;;13.67;8.80;;;6.60;71.80;;;;;;5056669;28;20029;-82
2021/11/19 00:27:18;;;;;;;11.67;7.83;;;6.60;72.00;;;;;;5059387;28;20454;-82
2021/11/19 00:29:45;;;;;;;14.17;7.93;;;6.60;72.30;;;;;;5072902;28;20092;-82
2021/11/19 00:32:12;;;;;;;13.60;7.80;;;6.60;72.20;;;;;;5081121;28;20081;-82
2021/11/19 00:34:39;;;;;;;16.13;9.23;;;6.70;72.30;;;;;;5073964;28;20115;-82
2021/11/19 00:37:06;;;;;;;14.80;8.53;;;6.60;72.50;;;;;;5052628;28;20025;-82
2021/11/19 00:39:32;;;;;;;19.23;9.40;;;6.70;72.60;;;;;;5061896;28;20103;-82
2021/11/19 00:42:00;;;;;;;22.47;11.70;;;6.70;72.60;;;;;;5087603;28;20416;-82
2021/11/19 00:44:26;;;;;;;21.00;11.23;;;6.60;72.80;;;;;;5061143;28;20029;-82
2021/11/19 00:46:53;;;;;;;21.93;10.63;;;6.60;72.90;;;;;;5054926;28;20092;-82
2021/11/19 00:49:24;;;;;;;23.77;11.17;;;6.60;72.80;;;;;;5069897;28;20025;-82
2021/11/19 00:51:53;;;;;;;28.47;12.57;;;6.60;72.80;;;;;;5059922;28;20031;-82
2021/11/19 00:54:19;;;;;;;28.43;12.63;;;6.60;72.80;;;;;;5074087;28;20078;-82
2021/11/19 00:56:48;;;;;;;33.97;12.53;;;6.60;72.80;;;;;;5062447;28;20384;-82
2021/11/19 00:59:16;;;;;;;28.20;12.60;;;6.60;72.90;;;;;;5055142;28;20116;-82
2021/11/19 01:01:49;;;;;;;29.63;12.77;;;6.60;73.00;;;;;;5060367;28;20131;-82
2021/11/19 01:04:16;;;;;;;34.67;14.70;;;6.60;73.10;;;;;;5049209;28;20029;-82
2021/11/19 01:06:43;;;;;;;32.77;16.83;;;6.60;73.00;;;;;;5057476;28;20219;-82
2021/11/19 01:09:14;;;;;;;30.33;15.30;;;6.70;73.10;;;;;;5061469;28;20121;-82
2021/11/19 01:11:42;;;;;;;28.17;14.13;;;6.70;73.00;;;;;;5088023;28;20380;-82
2021/11/19 01:14:28;;;;;;;25.40;11.57;;;6.70;72.80;;;;;;5053085;28;20275;-82
2021/11/19 01:16:59;;;;;;;32.53;12.90;;;6.70;72.80;;;;;;5044564;28;20471;-82
2021/11/19 01:19:31;;;;;;;33.70;14.77;;;6.60;72.80;;;;;;5070391;28;20499;-81
2021/11/19 01:22:02;;;;;;;28.55;13.68;;;6.60;72.80;;;;;;5063106;28;20128;-82
2021/11/19 01:24:29;;;;;;;33.27;14.43;;;6.50;72.90;;;;;;5056987;28;20051;-82
2021/11/19 01:26:56;;;;;;;32.43;14.33;;;6.50;72.90;;;;;;5069291;28;20031;-82
2021/11/19 01:29:22;;;;;;;22.00;10.60;;;6.50;72.70;;;;;;5061590;28;20028;-82
2021/11/19 01:32:09;;;;;;;23.73;10.93;;;6.50;72.70;;;;;;5028111;28;20187;-82
2021/11/19 01:34:36;;;;;;;20.07;10.77;;;6.50;72.60;;;;;;5075526;28;20096;-82
2021/11/19 01:37:03;;;;;;;16.47;9.23;;;6.40;72.70;;;;;;5066980;28;20024;-82
2021/11/19 01:39:30;;;;;;;13.60;7.60;;;6.40;72.80;;;;;;5088019;28;20041;-82
2021/11/19 01:42:07;;;;;;;12.83;7.00;;;6.50;72.90;;;;;;5059498;28;20060;-82
2021/11/19 01:44:52;;;;;;;15.33;7.57;;;6.50;73.00;;;;;;5065958;28;20034;-82
2021/11/19 01:47:19;;;;;;;16.07;6.67;;;6.50;73.00;;;;;;5093859;28;20032;-82
2021/11/19 01:49:45;;;;;;;14.77;7.47;;;6.50;72.90;;;;;;5064082;28;20472;-82
2021/11/19 01:52:19;;;;;;;13.50;7.43;;;6.50;73.20;;;;;;5057549;28;20082;-81
2021/11/19 01:54:59;;;;;;;13.23;7.80;;;6.50;73.10;;;;;;5060309;28;20035;-82
2021/11/19 01:57:39;;;;;;;12.00;7.27;;;6.40;73.00;;;;;;5062823;28;20062;-82
2021/11/19 02:00:29;;;;;;;13.13;7.30;;;6.40;73.10;;;;;;5054500;28;20064;-82
2021/11/19 02:02:56;;;;;;;13.47;7.53;;;6.40;73.10;;;;;;5060314;28;20028;-82
2021/11/19 02:05:28;;;;;;;11.13;6.50;;;6.40;72.90;;;;;;5075932;28;20706;-82
2021/11/19 02:08:00;;;;;;;11.17;7.10;;;6.40;72.90;;;;;;5074401;28;20048;-82
2021/11/19 02:10:40;;;;;;;11.18;6.80;;;6.40;73.00;;;;;;5077605;28;20024;-82
2021/11/19 02:13:21;;;;;;;10.53;6.47;;;6.40;72.90;;;;;;5068569;28;20515;-82
2021/11/19 02:15:51;;;;;;;13.43;7.43;;;6.40;73.00;;;;;;5053464;28;20404;-82
2021/11/19 02:18:40;;;;;;;10.60;6.70;;;6.40;73.10;;;;;;5079581;28;20576;-82
2021/11/19 02:21:32;;;;;;;12.03;6.87;;;6.40;73.00;;;;;;5078873;28;20495;-82
2021/11/19 02:24:05;;;;;;;10.60;5.77;;;6.40;73.40;;;;;;5072468;28;20028;-81
2021/11/19 02:27:03;;;;;;;13.17;6.13;;;6.40;73.30;;;;;;5052678;28;20060;-82
2021/11/19 02:29:33;;;;;;;9.47;5.80;;;6.40;73.10;;;;;;5057094;28;20040;-82
2021/11/19 02:32:05;;;;;;;13.80;7.30;;;6.40;73.20;;;;;;5068903;28;20380;-81
2021/11/19 02:34:31;;;;;;;12.87;6.70;;;6.40;73.10;;;;;;5053093;28;20494;-82
2021/11/19 02:37:00;;;;;;;13.03;7.27;;;6.40;73.10;;;;;;5056176;28;20028;-82
2021/11/19 02:39:31;;;;;;;12.97;7.37;;;6.50;73.30;;;;;;5083108;28;20020;-82
2021/11/19 02:42:16;;;;;;;15.23;9.73;;;6.50;73.80;;;;;;5060451;28;20040;-81
2021/11/19 02:44:42;;;;;;;16.13;9.30;;;6.50;73.10;;;;;;5069114;28;20475;-82
2021/11/19 02:47:12;;;;;;;12.53;8.17;;;6.50;73.10;;;;;;5050960;28;20111;-82
2021/11/19 02:49:39;;;;;;;15.13;8.47;;;6.50;73.30;;;;;;5053979;28;20052;-81
2021/11/19 02:52:08;;;;;;;10.97;6.13;;;6.50;73.50;;;;;;5059792;28;20021;-82
2021/11/19 02:54:34;;;;;;;10.17;7.00;;;6.50;73.70;;;;;;5047145;28;20154;-81
2021/11/19 02:57:02;;;;;;;10.50;6.67;;;6.60;74.10;;;;;;5056146;28;20041;-82
2021/11/19 02:59:28;;;;;;;10.30;6.13;;;6.70;73.50;;;;;;5062892;28;20032;-82
2021/11/19 03:02:02;;;;;;;9.30;5.13;;;6.60;73.40;;;;;;5079669;28;20073;-82
2021/11/19 03:04:37;;;;;;;8.60;4.97;;;6.60;73.50;;;;;;5047867;28;20024;-82
2021/11/19 03:07:04;;;;;;;6.67;4.00;;;6.70;73.50;;;;;;5053478;28;20016;-82
2021/11/19 03:09:36;;;;;;;5.97;4.17;;;6.70;73.70;;;;;;5080566;28;20020;-82
2021/11/19 03:12:04;;;;;;;5.47;3.13;;;6.80;73.70;;;;;;5062413;28;20017;-82
2021/11/19 03:14:31;;;;;;;5.03;3.17;;;6.90;73.80;;;;;;5056940;28;20149;-82
2021/11/19 03:16:57;;;;;;;4.37;2.57;;;6.90;73.60;;;;;;5065836;28;20115;-82
2021/11/19 03:19:24;;;;;;;5.47;3.03;;;6.90;73.60;;;;;;5063704;28;20089;-82
2021/11/19 03:21:49;;;;;;;6.13;2.90;;;6.90;73.60;;;;;;5077504;28;20032;-82
2021/11/19 03:24:16;;;;;;;4.40;2.80;;;6.90;73.70;;;;;;5054620;28;20033;-80
2021/11/19 03:26:43;;;;;;;6.43;3.33;;;7.00;74.10;;;;;;5053791;28;20420;-82
2021/11/19 03:29:11;;;;;;;9.70;3.40;;;7.00;73.70;;;;;;5053472;28;20022;-82
2021/11/19 03:31:38;;;;;;;4.30;2.43;;;7.00;73.80;;;;;;5080891;28;20020;-81
2021/11/19 03:34:07;;;;;;;4.27;2.63;;;7.00;73.80;;;;;;5061290;28;20024;-82
2021/11/19 03:36:33;;;;;;;4.90;2.60;;;6.90;73.90;;;;;;5058346;28;20028;-82
2021/11/19 03:38:59;;;;;;;3.90;2.50;;;7.00;74.20;;;;;;5074306;28;20108;-82
2021/11/19 03:41:33;;;;;;;4.23;2.80;;;7.00;74.20;;;;;;5076720;28;20027;-82
2021/11/19 03:44:08;;;;;;;5.10;3.07;;;7.00;74.10;;;;;;5057300;28;20040;-82
2021/11/19 03:46:40;;;;;;;4.73;3.40;;;7.00;73.90;;;;;;5064765;28;20103;-81
2021/11/19 03:49:06;;;;;;;5.30;3.33;;;7.10;74.50;;;;;;5074553;28;20021;-80
2021/11/19 03:51:36;;;;;;;6.40;3.40;;;7.10;73.90;;;;;;5074031;28;20398;-82
2021/11/19 03:54:03;;;;;;;7.53;3.70;;;7.10;73.90;;;;;;5053028;28;21019;-82
2021/11/19 03:56:29;;;;;;;9.73;3.63;;;7.10;73.90;;;;;;5059105;28;20383;-82
2021/11/19 03:58:56;;;;;;;5.10;3.23;;;7.00;74.00;;;;;;5054130;28;20024;-82
2021/11/19 04:01:30;;;;;;;6.27;3.40;;;7.10;74.10;;;;;;5072343;28;20031;-82
2021/11/19 04:03:56;;;;;;;7.07;3.10;;;7.10;74.20;;;;;;5054536;28;20055;-82
2021/11/19 04:06:22;;;;;;;4.97;3.20;;;7.20;74.10;;;;;;5057020;28;20024;-82
2021/11/19 04:08:49;;;;;;;6.70;2.80;;;7.20;74.00;;;;;;5060016;28;20036;-82
2021/11/19 04:11:16;;;;;;;4.73;2.77;;;7.30;73.70;;;;;;5058514;28;20383;-82
2021/11/19 04:13:43;;;;;;;5.40;2.40;;;7.20;73.80;;;;;;5073501;28;20125;-82
2021/11/19 04:16:15;;;;;;;4.90;3.00;;;7.20;73.80;;;;;;5068169;28;20372;-82
2021/11/19 04:18:42;;;;;;;5.13;3.17;;;7.30;73.80;;;;;;5065290;28;20028;-82
2021/11/19 04:21:08;;;;;;;5.83;2.90;;;7.20;73.70;;;;;;5055654;28;20471;-82
2021/11/19 04:23:34;;;;;;;4.93;3.27;;;7.30;73.70;;;;;;5052981;28;20080;-82
2021/11/19 04:26:03;;;;;;;4.60;3.17;;;7.30;73.80;;;;;;5051910;28;20099;-81
2021/11/19 04:28:29;;;;;;;8.60;3.70;;;7.20;73.60;;;;;;5072793;28;20529;-82
2021/11/19 04:30:56;;;;;;;4.73;3.10;;;7.20;73.80;;;;;;5071193;28;20482;-82
2021/11/19 04:33:23;;;;;;;6.67;3.07;;;7.30;73.60;;;;;;5055999;28;20034;-82
2021/11/19 04:35:52;;;;;;;4.77;2.83;;;7.30;73.70;;;;;;5080381;28;20021;-81
2021/11/19 04:38:19;;;;;;;3.27;2.20;;;7.30;73.60;;;;;;5072774;28;20027;-80
2021/11/19 04:40:45;;;;;;;6.40;2.97;;;7.30;73.50;;;;;;5080361;28;20438;-80
2021/11/19 04:43:11;;;;;;;4.07;2.80;;;7.30;73.70;;;;;;5051895;28;20588;-81
2021/11/19 04:45:38;;;;;;;4.43;2.60;;;7.20;73.50;;;;;;5055474;28;20107;-80
2021/11/19 04:48:05;;;;;;;4.97;2.57;;;7.20;73.90;;;;;;5056744;28;20024;-80
2021/11/19 04:50:36;;;;;;;3.87;2.80;;;7.20;73.80;;;;;;5061735;28;20020;-81
2021/11/19 04:53:03;;;;;;;6.43;3.40;;;7.20;73.80;;;;;;5059393;28;20029;-81
2021/11/19 04:55:29;;;;;;;4.57;3.10;;;7.20;73.60;;;;;;5057010;28;20036;-81
2021/11/19 04:57:55;;;;;;;4.47;3.17;;;7.30;73.80;;;;;;5071374;28;20028;-81
2021/11/19 05:00:29;;;;;;;4.13;3.00;;;7.30;73.80;;;;;;5075149;28;20032;-81
2021/11/19 05:02:55;;;;;;;5.67;3.40;;;7.20;73.60;;;;;;5076559;28;20380;-81
2021/11/19 05:05:23;;;;;;;9.33;6.50;;;7.20;73.50;;;;;;5081458;28;20476;-82
2021/11/19 05:07:49;;;;;;;9.23;4.90;;;7.20;73.80;;;;;;5069768;28;20025;-81
2021/11/19 05:10:16;;;;;;;6.03;4.23;;;7.20;73.50;;;;;;5068860;28;20057;-81
2021/11/19 05:12:48;;;;;;;6.90;3.77;;;7.20;73.70;;;;;;5053485;28;20429;-81
2021/11/19 05:15:14;;;;;;;6.45;4.72;;;7.20;73.40;;;;;;5077032;28;20394;-82
2021/11/19 05:17:41;;;;;;;5.80;4.33;;;7.10;73.40;;;;;;5073151;28;20028;-81
2021/11/19 05:20:09;;;;;;;6.17;4.80;;;7.10;73.70;;;;;;5067209;28;20029;-81
2021/11/19 05:22:35;;;;;;;6.50;3.53;;;7.00;73.70;;;;;;5056007;28;20025;-81
2021/11/19 05:25:02;;;;;;;6.00;4.07;;;7.10;73.90;;;;;;5062575;28;20023;-79
2021/11/19 05:27:28;;;;;;;7.03;3.80;;;7.10;73.70;;;;;;5080772;28;20051;-81
2021/11/19 05:29:53;;;;;;;5.87;3.13;;;7.10;73.50;;;;;;5058713;28;20080;-81
2021/11/19 05:32:19;;;;;;;6.50;3.83;;;7.10;73.70;;;;;;5081652;28;20037;-81
2021/11/19 05:34:45;;;;;;;4.47;3.27;;;7.10;73.20;;;;;;5073622;28;20064;-81
2021/11/19 05:37:11;;;;;;;7.90;3.90;;;7.10;73.10;;;;;;5054831;28;20387;-81
2021/11/19 05:39:37;;;;;;;6.83;4.27;;;7.10;73.50;;;;;;5052014;28;20035;-80
2021/11/19 05:42:05;;;;;;;8.00;4.40;;;7.10;73.30;;;;;;5082959;28;20953;-81
2021/11/19 05:44:32;;;;;;;7.87;4.07;;;7.00;73.30;;;;;;5076502;28;20021;-81
2021/11/19 05:46:59;;;;;;;5.83;4.23;;;7.00;73.60;;;;;;5070754;28;20066;-81
2021/11/19 05:49:25;;;;;;;7.33;4.40;;;6.90;73.20;;;;;;5059980;28;20025;-80
2021/11/19 05:51:53;;;;;;;5.93;4.23;;;6.90;73.30;;;;;;5059052;28;20021;-81
2021/11/19 05:54:21;;;;;;;5.23;4.00;;;6.90;73.80;;;;;;5071140;28;20024;-80
2021/11/19 05:56:48;;;;;;;7.60;4.20;;;7.00;73.50;;;;;;5054326;28;20564;-81
2021/11/19 05:59:14;;;;;;;8.97;4.73;;;7.00;73.50;;;;;;5073370;28;20074;-80
2021/11/19 06:01:40;;;;;;;7.43;4.93;;;7.00;73.60;;;;;;5056354;28;20020;-81
2021/11/19 06:04:06;;;;;;;6.20;3.30;;;7.00;73.30;;;;;;5053604;28;20052;-81
2021/11/19 06:06:32;;;;;;;6.93;3.80;;;7.00;73.40;;;;;;5037559;28;20469;-81
2021/11/19 06:08:58;;;;;;;7.23;3.97;;;6.90;73.20;;;;;;5052250;28;20031;-81
2021/11/19 06:11:31;;;;;;;5.03;3.47;;;6.90;73.10;;;;;;5073808;28;20104;-81
2021/11/19 06:14:08;;;;;;;5.80;3.30;;;6.80;73.30;;;;;;5069480;28;20195;-80
2021/11/19 06:16:42;;;;;;;6.10;4.10;;;6.80;73.50;;;;;;5042029;28;20488;-81
2021/11/19 06:19:11;;;;;;;8.17;4.10;;;6.70;73.20;;;;;;5082166;28;20039;-81
2021/11/19 06:21:45;;;;;;;6.93;4.17;;;6.70;73.40;;;;;;5098131;28;20028;-80
2021/11/19 06:24:19;;;;;;;6.90;4.53;;;6.70;73.50;;;;;;5062445;28;20047;-81
2021/11/19 06:26:46;;;;;;;9.33;4.80;;;6.70;73.90;;;;;;5077315;28;20116;-81
2021/11/19 06:29:13;;;;;;;7.07;4.90;;;6.80;73.80;;;;;;5075277;28;20025;-80
2021/11/19 06:31:45;;;;;;;8.87;5.70;;;6.90;73.50;;;;;;5079683;28;20073;-81
2021/11/19 06:34:11;;;;;;;6.50;4.68;;;6.80;73.30;;;;;;5065270;28;20020;-81
2021/11/19 06:36:41;;;;;;;9.93;5.03;;;6.80;72.90;;;;;;5052785;28;20035;-81
2021/11/19 06:39:07;;;;;;;7.40;5.50;;;6.70;73.10;;;;;;5074545;28;20017;-81
2021/11/19 06:41:36;;;;;;;6.57;4.73;;;6.70;72.90;;;;;;5072193;28;20021;-80
2021/11/19 06:44:02;;;;;;;6.17;4.17;;;6.60;73.20;;;;;;5043950;28;20052;-81
2021/11/19 06:46:28;;;;;;;12.90;5.03;;;6.60;73.40;;;;;;5053211;28;20028;-80
2021/11/19 06:48:53;;;;;;;10.03;5.10;;;6.60;73.80;;;;;;5069971;28;20051;-81
2021/11/19 06:51:21;;;;;;;10.07;4.10;;;6.60;73.80;;;;;;5062798;28;20024;-81
2021/11/19 06:53:47;;;;;;;7.40;4.93;;;6.50;73.70;;;;;;5071236;28;20377;-81
2021/11/19 06:56:15;;;;;;;9.70;5.13;;;6.60;74.10;;;;;;5060151;28;20162;-80
2021/11/19 06:58:41;;;;;;;8.83;5.33;;;6.60;73.70;;;;;;5064390;28;20036;-81
2021/11/19 07:01:07;;;;;;;9.07;4.83;;;6.50;73.60;;;;;;5051865;28;20031;-81
2021/11/19 07:03:33;;;;;;;13.03;5.17;;;6.60;73.80;;;;;;5080233;28;20035;-81
2021/11/19 07:05:59;;;;;;;8.33;5.10;;;6.60;73.90;;;;;;5041964;28;20372;-81
2021/11/19 07:08:26;;;;;;;7.20;5.13;;;6.70;73.70;;;;;;5058710;28;20028;-81
2021/11/19 07:10:56;;;;;;;6.53;4.63;;;6.70;73.50;;;;;;5077170;28;20050;-80
2021/11/19 07:13:23;;;;;;;10.17;7.10;;;6.70;73.50;;;;;;5069544;28;20033;-80
2021/11/19 07:15:48;;;;;;;14.13;9.20;;;6.70;73.40;;;;;;5052898;28;20035;-81
2021/11/19 07:18:14;;;;;;;16.83;9.67;;;6.80;73.50;;;;;;5051581;28;20110;-81
2021/11/19 07:20:40;;;;;;;16.00;9.50;;;6.80;73.30;;;;;;5082395;28;20032;-79
2021/11/19 07:23:09;;;;;;;14.30;8.67;;;6.70;73.20;;;;;;5045868;28;20096;-80
2021/11/19 07:25:34;;;;;;;10.10;6.93;;;6.70;73.20;;;;;;5050534;28;20029;-80
2021/11/19 07:28:01;;;;;;;15.73;8.10;;;6.80;73.10;;;;;;5058505;28;20024;-80
2021/11/19 07:30:51;;;;;;;13.80;8.40;;;6.70;73.00;;;;;;5059981;28;20096;-81
2021/11/19 07:33:17;;;;;;;9.87;6.30;;;6.60;73.10;;;;;;5057318;28;20031;-81
2021/11/19 07:35:44;;;;;;;9.20;5.40;;;6.70;73.30;;;;;;5055412;28;20480;-81
2021/11/19 07:38:10;;;;;;;9.47;5.73;;;6.70;73.30;;;;;;5065664;28;20033;-80
2021/11/19 07:40:39;;;;;;;9.00;5.80;;;6.70;73.10;;;;;;5054951;28;20036;-80
2021/11/19 07:43:05;;;;;;;9.93;6.93;;;6.70;73.00;;;;;;5051070;28;20049;-81
2021/11/19 07:45:36;;;;;;;14.23;6.77;;;6.70;73.00;;;;;;5048032;28;20036;-81
2021/11/19 07:48:05;;;;;;;12.37;8.53;;;6.70;72.90;;;;;;5038973;28;20028;-81
2021/11/19 07:50:32;;;;;;;13.37;6.97;;;6.70;73.10;;;;;;5019620;28;20029;-80
2021/11/19 07:52:57;;;;;;;14.93;7.10;;;6.80;73.30;;;;;;5043148;28;20502;-81
2021/11/19 07:55:24;;;;;;;7.37;4.50;;;6.80;73.20;;;;;;5063747;28;20029;-81
2021/11/19 07:57:50;;;;;;;7.33;4.50;;;6.90;73.10;;;;;;5052790;28;20096;-81
2021/11/19 08:00:20;;;;;;;11.53;4.60;;;6.90;73.10;;;;;;5041369;28;20510;-81
2021/11/19 08:02:46;;;;;;;6.80;4.33;;;6.90;73.00;;;;;;5044441;28;20029;-81
2021/11/19 08:05:13;;;;;;;10.57;4.47;;;6.90;72.90;;;;;;5041604;28;20025;-80
2021/11/19 08:07:39;;;;;;;9.43;3.97;;;6.90;73.00;;;;;;5038643;28;20116;-81
2021/11/19 08:10:07;;;;;;;7.87;4.27;;;7.00;73.10;;;;;;5035714;28;20532;-81
2021/11/19 08:12:32;;;;;;;6.37;4.20;;;7.00;73.10;;;;;;5027067;28;20123;-80
2021/11/19 08:15:00;;;;;;;9.03;4.73;;;7.10;72.80;;;;;;5038950;28;20605;-81
2021/11/19 08:17:32;;;;;;;9.37;4.67;;;7.00;72.80;;;;;;5069592;28;20036;-81
2021/11/19 08:19:59;;;;;;;10.10;6.03;;;7.10;73.10;;;;;;5038436;28;20476;-81
2021/11/19 08:22:26;;;;;;;9.23;5.40;;;7.10;73.00;;;;;;5057210;28;20033;-80
2021/11/19 08:24:53;;;;;;;11.40;7.07;;;7.00;72.90;;;;;;5064614;28;20012;-80
2021/11/19 08:27:25;;;;;;;8.23;5.60;;;7.00;73.10;;;;;;5056015;28;20032;-81
2021/11/19 08:29:54;;;;;;;8.10;4.78;;;7.10;74.10;;;;;;5033831;28;20025;-81
2021/11/19 08:32:22;;;;;;;14.13;5.43;;;7.20;73.30;;;;;;5033193;28;20045;-81
2021/11/19 08:34:49;;;;;;;12.17;6.10;;;7.30;73.10;;;;;;5046015;28;20057;-81
2021/11/19 08:37:17;;;;;;;7.03;4.20;;;7.40;72.80;;;;;;5043178;28;20021;-80
2021/11/19 08:39:43;;;;;;;13.03;5.73;;;7.40;72.70;;;;;;5048658;28;20074;-81
2021/11/19 08:42:10;;;;;;;15.23;7.40;;;7.50;72.60;;;;;;5053582;28;20074;-81
2021/11/19 08:44:41;;;;;;;10.93;4.70;;;7.50;72.30;;;;;;5070784;28;20128;-81
2021/11/19 08:47:10;;;;;;;9.60;4.30;;;7.50;72.30;;;;;;5056496;28;20492;-81
2021/11/19 08:49:37;;;;;;;7.00;4.00;;;7.50;72.20;;;;;;5056178;28;20518;-81
2021/11/19 08:52:09;;;;;;;7.70;3.30;;;7.60;72.30;;;;;;5073405;28;20024;-80
2021/11/19 08:54:35;;;;;;;6.45;3.90;;;7.60;72.00;;;;;;5070664;28;20078;-80
2021/11/19 08:57:06;;;;;;;13.53;5.23;;;7.60;71.90;;;;;;5070892;28;20043;-81
2021/11/19 08:59:37;;;;;;;5.87;3.90;;;7.60;72.50;;;;;;5050883;28;20044;-81
2021/11/19 09:02:05;;;;;;;7.23;4.10;;;7.70;72.10;;;;;;5061189;28;20028;-81
2021/11/19 09:04:32;;;;;;;5.00;3.17;;;7.80;71.90;;;;;;5062190;28;20353;-81
2021/11/19 09:06:58;;;;;;;7.10;3.60;;;7.90;71.70;;;;;;5081328;28;20024;-80
2021/11/19 09:09:25;;;;;;;7.53;4.20;;;7.90;71.50;;;;;;5059318;28;20028;-81
2021/11/19 09:11:51;;;;;;;8.63;3.67;;;7.90;71.30;;;;;;5043095;28;20021;-80
2021/11/19 09:14:18;;;;;;;7.17;3.70;;;8.00;71.30;;;;;;5059102;28;20129;-80
2021/11/19 09:17:03;;;;;;;6.10;4.37;;;8.20;71.30;;;;;;5064079;28;20017;-81
2021/11/19 09:19:48;;;;;;;11.90;3.47;;;8.30;71.20;;;;;;5066406;28;20066;-81
2021/11/19 09:22:13;;;;;;;6.33;3.83;;;8.50;70.60;;;;;;5064402;28;20033;-81
2021/11/19 09:24:39;;;;;;;7.10;3.77;;;8.40;70.50;;;;;;5055626;28;20092;-81
2021/11/19 09:27:16;;;;;;;7.23;3.23;;;8.40;70.40;;;;;;5059155;28;20421;-81
2021/11/19 09:29:52;;;;;;;6.17;3.87;;;8.50;70.40;;;;;;5068653;28;20025;-80
2021/11/19 09:32:21;;;;;;;4.17;2.93;;;8.60;70.40;;;;;;5060878;28;20036;-81
2021/11/19 09:34:50;;;;;;;5.60;3.00;;;8.70;70.20;;;;;;5062588;28;20032;-81
2021/11/19 09:37:17;;;;;;;5.43;3.50;;;8.70;69.70;;;;;;5068891;28;20025;-81
2021/11/19 09:39:45;;;;;;;6.63;3.47;;;8.80;69.40;;;;;;5056916;28;20436;-81
2021/11/19 09:42:42;;;;;;;5.17;3.20;;;8.80;68.70;;;;;;5061846;28;20506;-81
2021/11/19 09:45:26;;;;;;;8.37;3.33;;;8.80;68.60;;;;;;5080486;28;20020;-81
2021/11/19 09:48:29;;;;;;;9.83;3.50;;;8.80;68.60;;;;;;5078231;28;20066;-81
2021/11/19 09:51:32;;;;;;;7.88;3.50;;;8.90;68.40;;;;;;5065934;28;20024;-81
2021/11/19 09:54:26;;;;;;;5.90;3.20;;;9.00;68.50;;;;;;5074414;28;20036;-81
2021/11/19 09:57:22;;;;;;;6.33;3.20;;;9.20;68.10;;;;;;5066949;28;20360;-81
2021/11/19 09:59:55;;;;;;;7.17;2.87;;;9.10;67.40;;;;;;5071634;28;20028;-81
2021/11/19 10:02:30;;;;;;;6.28;2.72;;;9.00;67.70;;;;;;5055904;28;20171;-81
2021/11/19 10:05:28;;;;;;;5.07;2.73;;;9.10;67.60;;;;;;5071185;28;20024;-81
2021/11/19 10:08:18;;;;;;;6.03;2.70;;;9.10;67.40;;;;;;5077242;28;20024;-81
2021/11/19 10:10:59;;;;;;;6.83;3.30;;;9.20;67.30;;;;;;5077008;28;20016;-81
2021/11/19 10:13:43;;;;;;;5.67;3.17;;;9.20;66.80;;;;;;5071281;28;20036;-81
2021/11/19 10:16:24;;;;;;;4.87;3.47;;;9.10;67.20;;;;;;5072761;28;20123;-81
2021/11/19 10:18:57;;;;;;;6.07;2.60;;;9.30;67.50;;;;;;5064506;28;20499;-81
2021/11/19 10:21:28;;;;;;;6.63;3.60;;;9.50;67.30;;;;;;5074711;28;20043;-80
2021/11/19 10:24:03;;;;;;;7.97;3.23;;;9.60;67.30;;;;;;5048804;28;20035;-81
2021/11/19 10:26:34;;;;;;;7.47;3.07;;;9.80;66.90;;;;;;5054041;28;20497;-81
2021/11/19 10:29:21;;;;;;;5.10;3.10;;;9.90;66.60;;;;;;5054521;28;20498;-81
2021/11/19 10:31:48;;;;;;;7.30;3.07;;;10.00;66.40;;;;;;5059273;28;20111;-82
2021/11/19 10:34:16;;;;;;;5.87;4.00;;;10.10;66.20;;;;;;5072169;28;20424;-81
2021/11/19 10:36:55;;;;;;;5.47;3.17;;;10.20;65.80;;;;;;5068741;28;20475;-81
2021/11/19 10:39:34;;;;;;;4.20;2.47;;;10.50;65.20;;;;;;5062231;28;20032;-81
2021/11/19 10:42:22;;;;;;;5.27;2.97;;;10.50;64.20;;;;;;5055816;28;20124;-82
2021/11/19 10:45:14;;;;;;;4.07;2.23;;;10.80;63.70;;;;;;5073749;28;20119;-81
2021/11/19 10:48:02;;;;;;;5.57;2.88;;;10.90;63.70;;;;;;5050074;28;20021;-81
2021/11/19 10:51:31;;;;;;;6.17;3.73;;;11.20;62.70;;;;;;5071450;28;20108;-82
2021/11/19 10:54:21;;;;;;;3.43;2.30;;;11.40;62.20;;;;;;5011084;28;20496;-82
2021/11/19 10:57:07;;;;;;;6.00;3.30;;;11.30;61.50;;;;;;5009902;28;20477;-82
2021/11/19 10:59:42;;;;;;;4.60;2.60;;;11.10;61.60;;;;;;5064030;28;20553;-82
2021/11/19 11:02:10;;;;;;;6.87;2.73;;;10.90;61.30;;;;;;5075364;28;20032;-81
2021/11/19 11:04:56;;;;;;;7.10;2.80;;;10.80;61.30;;;;;;5064699;28;20061;-81
2021/11/19 11:07:34;;;;;;;6.73;2.80;;;10.70;61.00;;;;;;5070979;28;20032;-81
2021/11/19 11:10:11;;;;;;;10.83;3.03;;;10.60;60.60;;;;;;5067162;28;20048;-81
2021/11/19 11:12:46;;;;;;;5.27;2.87;;;10.60;61.10;;;;;;5056141;28;20036;-81
2021/11/19 11:15:19;;;;;;;3.63;2.13;;;10.60;60.90;;;;;;5070335;28;20024;-81
2021/11/19 11:17:54;;;;;;;3.28;2.47;;;10.60;60.60;;;;;;5068942;28;20036;-81
2021/11/19 11:20:27;;;;;;;5.37;2.40;;;10.50;60.70;;;;;;5070770;28;20428;-81
2021/11/19 11:22:56;;;;;;;6.23;2.70;;;10.40;60.50;;;;;;5071497;28;20021;-81
2021/11/19 11:25:35;;;;;;;6.57;2.30;;;10.20;60.80;;;;;;5072190;28;20410;-81
2021/11/19 11:28:13;;;;;;;3.70;2.40;;;10.20;61.30;;;;;;5067066;28;20096;-81
2021/11/19 11:30:57;;;;;;;3.40;1.83;;;10.20;61.90;;;;;;5072382;28;20021;-81
2021/11/19 11:33:33;;;;;;;4.53;2.20;;;10.30;61.40;;;;;;5060726;28;20031;-82
2021/11/19 11:36:07;;;;;;;6.47;2.67;;;10.50;61.50;;;;;;5077614;28;20030;-81
2021/11/19 11:39:00;;;;;;;3.03;2.10;;;10.50;61.60;;;;;;5073488;28;20059;-82
2021/11/19 11:41:34;;;;;;;4.57;2.22;;;10.60;61.30;;;;;;5065199;28;20039;-82
2021/11/19 11:44:06;;;;;;;4.10;2.80;;;10.50;61.30;;;;;;5063434;28;20097;-82
2021/11/19 11:46:36;;;;;;;4.83;2.97;;;10.50;61.30;;;;;;5048641;28;20036;-82
2021/11/19 11:49:16;;;;;;;4.80;3.20;;;10.50;61.40;;;;;;5067193;28;22328;-82
2021/11/19 11:51:50;;;;;;;7.80;3.10;;;10.50;61.20;;;;;;5063170;28;21705;-82
2021/11/19 11:54:30;;;;;;;6.80;3.53;;;10.50;60.90;;;;;;5054228;28;20040;-81
2021/11/19 11:57:21;;;;;;;4.20;2.50;;;10.60;61.20;;;;;;5067976;28;20033;-81
2021/11/19 12:00:12;;;;;;;7.43;2.47;;;10.50;60.20;;;;;;5066050;28;20040;-81
2021/11/19 12:02:54;;;;;;;4.57;2.43;;;10.60;60.20;;;;;;5071976;28;20033;-81
2021/11/19 12:05:28;;;;;;;3.53;1.93;;;10.60;60.00;;;;;;5043710;28;20025;-81
2021/11/19 12:08:08;;;;;;;5.10;2.37;;;10.60;60.00;;;;;;5064522;28;20079;-81
2021/11/19 12:10:35;;;;;;;3.80;2.07;;;10.70;60.00;;;;;;5082703;28;20107;-81
2021/11/19 12:13:29;;;;;;;7.60;2.30;;;10.70;60.00;;;;;;5073546;28;20039;-81
2021/11/19 12:16:32;;;;;;;2.73;1.80;;;10.70;59.80;;;;;;5070791;28;20479;-81
2021/11/19 12:18:59;;;;;;;3.80;1.85;;;10.80;59.80;;;;;;5055574;28;20033;-81
2021/11/19 12:21:33;;;;;;;6.33;2.57;;;10.80;59.90;;;;;;5065085;28;20480;-81
2021/11/19 12:24:20;;;;;;;3.80;2.37;;;10.80;60.40;;;;;;5069785;28;20116;-82
2021/11/19 12:26:58;;;;;;;3.20;2.23;;;10.80;59.80;;;;;;5070589;28;20475;-82
2021/11/19 12:29:48;;;;;;;8.23;3.73;;;10.80;59.90;;;;;;5055965;28;20029;-81
2021/11/19 12:32:40;;;;;;;5.33;2.67;;;10.80;60.10;;;;;;5088413;28;20477;-82
2021/11/19 12:35:11;;;;;;;3.20;2.20;;;10.80;59.90;;;;;;5091268;28;20471;-82
2021/11/19 12:38:12;;;;;;;8.17;2.97;;;10.90;60.10;;;;;;5056311;28;20418;-81
2021/11/19 12:40:49;;;;;;;4.90;2.70;;;10.90;60.00;;;;;;5051024;28;20124;-81
2021/11/19 12:44:03;;;;;;;4.60;2.60;;;10.90;60.10;;;;;;5089215;28;20051;-82
2021/11/19 12:46:32;;;;;;;;;;;10.90;60.20;;;;;;5063459;28;20032;-81
2021/11/19 12:49:15;;;;;;;5.57;3.30;;;10.90;60.40;;;;;;5068618;28;19965;-82
2021/11/19 12:51:53;;;;;;;6.87;3.90;;;11.00;60.40;;;;;;5075733;28;20059;-82
2021/11/19 12:54:57;;;;;;;7.43;3.20;;;11.00;60.40;;;;;;5072948;28;20486;-82
2021/11/19 12:57:41;;;;;;;5.10;3.60;;;11.00;60.50;;;;;;5067338;28;20024;-81
2021/11/19 13:00:35;;;;;;;4.63;3.57;;;11.00;60.40;;;;;;5072903;28;20104;-80
2021/11/19 13:03:19;;;;;;;;;;;11.10;60.40;;;;;;5059213;28;20036;-80
2021/11/19 13:06:13;;;;;;;5.10;3.30;;;11.00;60.50;;;;;;5073178;28;19908;-80
2021/11/19 13:08:55;;;;;;;7.33;3.03;;;11.00;60.40;;;;;;5067446;28;20095;-80
2021/11/19 13:11:30;;;;;;;5.80;2.65;;;11.00;60.20;;;;;;5062929;28;20024;-81
2021/11/19 13:14:15;;;;;;;4.87;3.40;;;11.10;60.30;;;;;;5065063;28;20028;-82
2021/11/19 13:16:48;;;;;;;4.97;3.10;;;11.00;60.10;;;;;;5076393;28;20439;-82
2021/11/19 13:19:29;;;;;;;10.47;4.87;;;11.00;60.10;;;;;;5075373;28;20032;-81